Time;durP1;ratioP1;P1;durP2;ratioP2;P2;SDS_P1;SDS_P2;PMS_P1;PMS_P2;Temp;Humidity;BMP_temperature;BMP_pressure;BME280_temperature;BME280_humidity;BME280_pressure;Samples;Min_cycle;Max_cycle;Signal;HPM_P1;HPM_P2
2021/03/05 00:00:20;;;;;;;14.30;7.70;;;4.90;91.60;;;;;;5064889;28;20036;-39
2021/03/05 00:02:46;;;;;;;16.75;8.57;;;4.90;91.60;;;;;;5065320;28;20073;-37
2021/03/05 00:05:14;;;;;;;20.20;12.18;;;4.90;91.60;;;;;;5066008;28;20016;-40
2021/03/05 00:07:41;;;;;;;18.38;11.05;;;4.90;91.70;;;;;;5066245;28;20032;-38
2021/03/05 00:10:10;;;;;;;16.48;11.38;;;4.90;91.70;;;;;;5066067;28;20796;-39
2021/03/05 00:12:36;;;;;;;17.95;11.30;;;4.90;91.80;;;;;;5065831;28;20040;-40
2021/03/05 00:15:05;;;;;;;23.55;12.48;;;4.90;91.80;;;;;;5065883;28;20443;-39
2021/03/05 00:17:31;;;;;;;16.42;11.68;;;4.90;91.80;;;;;;5065668;28;20156;-40
2021/03/05 00:19:56;;;;;;;18.13;11.13;;;4.90;91.80;;;;;;5066652;28;20108;-39
2021/03/05 00:22:23;;;;;;;15.93;10.48;;;4.80;91.80;;;;;;5066490;28;20025;-38
2021/03/05 00:24:48;;;;;;;15.20;11.05;;;4.80;91.80;;;;;;5065572;28;20172;-37
2021/03/05 00:27:14;;;;;;;17.40;11.13;;;4.80;91.80;;;;;;5066873;28;20028;-40
2021/03/05 00:29:40;;;;;;;15.85;10.57;;;4.80;91.80;;;;;;5065770;28;20133;-40
2021/03/05 00:32:06;;;;;;;15.95;10.30;;;4.80;92.10;;;;;;5065928;28;20112;-40
2021/03/05 00:34:33;;;;;;;12.95;10.02;;;4.80;91.90;;;;;;5066640;28;20432;-41
2021/03/05 00:37:01;;;;;;;17.33;11.10;;;4.80;92.10;;;;;;5066453;28;20036;-39
2021/03/05 00:39:27;;;;;;;17.10;10.65;;;4.80;91.80;;;;;;5065563;28;20127;-39
2021/03/05 00:41:53;;;;;;;15.98;10.35;;;4.80;91.80;;;;;;5065679;28;20519;-40
2021/03/05 00:44:20;;;;;;;18.58;11.23;;;4.80;91.80;;;;;;5066026;28;20506;-39
2021/03/05 00:46:46;;;;;;;17.55;10.48;;;4.80;91.80;;;;;;5065443;28;20032;-40
2021/03/05 00:49:11;;;;;;;15.43;10.32;;;4.80;91.80;;;;;;5065876;28;20055;-39
2021/03/05 00:51:37;;;;;;;16.95;10.80;;;4.80;91.80;;;;;;5065684;28;20021;-40
2021/03/05 00:54:03;;;;;;;17.73;10.30;;;4.80;91.70;;;;;;5064835;28;20059;-40
2021/03/05 00:56:29;;;;;;;16.23;10.85;;;4.70;91.60;;;;;;5065784;28;20035;-40
2021/03/05 00:58:54;;;;;;;17.60;10.55;;;4.70;91.60;;;;;;5065509;28;20024;-38
2021/03/05 01:01:20;;;;;;;16.83;10.85;;;4.70;91.60;;;;;;5064993;28;20024;-39
2021/03/05 01:03:45;;;;;;;15.48;10.20;;;4.60;91.50;;;;;;5064232;28;20020;-38
2021/03/05 01:06:11;;;;;;;13.88;8.88;;;4.50;91.40;;;;;;5064276;28;20047;-38
2021/03/05 01:08:36;;;;;;;15.18;9.75;;;4.40;91.50;;;;;;5063492;28;20029;-37
2021/03/05 01:11:02;;;;;;;16.48;10.30;;;4.30;91.60;;;;;;5064125;28;20705;-37
2021/03/05 01:13:28;;;;;;;15.00;9.80;;;4.20;91.60;;;;;;5063693;28;20036;-39
2021/03/05 01:15:53;;;;;;;14.27;9.85;;;4.20;91.70;;;;;;5064159;28;20107;-38
2021/03/05 01:18:22;;;;;;;18.02;11.05;;;4.10;91.80;;;;;;5063555;28;20044;-38
2021/03/05 01:20:48;;;;;;;14.95;9.60;;;4.00;91.80;;;;;;5063780;28;20669;-39
2021/03/05 01:23:15;;;;;;;13.95;9.75;;;3.90;91.80;;;;;;5063892;28;20417;-39
2021/03/05 01:25:43;;;;;;;12.60;8.98;;;3.90;92.20;;;;;;5064120;28;20098;-39
2021/03/05 01:28:09;;;;;;;10.98;8.70;;;3.80;92.00;;;;;;5063464;28;20111;-40
2021/03/05 01:30:35;;;;;;;13.13;8.82;;;3.80;92.10;;;;;;5063784;28;20190;-39
2021/03/05 01:33:00;;;;;;;12.93;8.85;;;3.70;92.20;;;;;;5063704;28;20036;-38
2021/03/05 01:35:28;;;;;;;13.18;9.43;;;3.70;92.20;;;;;;5063507;28;20024;-39
2021/03/05 01:38:00;;;;;;;13.18;9.43;;;3.60;92.30;;;;;;5063290;28;20051;-38
2021/03/05 01:40:33;;;;;;;15.23;8.73;;;3.60;92.40;;;;;;5063698;28;20510;-37
2021/03/05 01:42:59;;;;;;;14.00;9.73;;;3.50;92.40;;;;;;5063426;28;20070;-39
2021/03/05 01:45:28;;;;;;;12.05;8.70;;;3.50;92.50;;;;;;5063512;28;20021;-40
2021/03/05 01:48:03;;;;;;;14.77;9.82;;;3.40;92.60;;;;;;5063611;28;20423;-38
2021/03/05 01:50:36;;;;;;;14.40;10.32;;;3.40;92.60;;;;;;5053555;28;20055;-38
2021/03/05 01:53:03;;;;;;;;;;;3.30;92.80;;;;;;5064028;28;20052;-38
2021/03/05 01:55:29;;;;;;;17.40;10.30;;;3.30;92.90;;;;;;5067346;28;19908;-39
2021/03/05 01:57:55;;;;;;;18.95;10.38;;;3.20;92.90;;;;;;5066784;28;20024;-38
2021/03/05 02:00:31;;;;;;;14.15;9.32;;;3.10;93.00;;;;;;5066785;28;20020;-39
2021/03/05 02:02:57;;;;;;;13.88;9.38;;;3.10;93.10;;;;;;5067066;28;20085;-39
2021/03/05 02:05:22;;;;;;;14.13;9.88;;;3.10;93.10;;;;;;5066945;28;20025;-39
2021/03/05 02:07:48;;;;;;;15.32;9.57;;;3.10;93.20;;;;;;5067161;28;20477;-36
2021/03/05 02:10:13;;;;;;;18.30;10.90;;;3.00;93.20;;;;;;5066165;28;20512;-38
2021/03/05 02:12:39;;;;;;;16.08;10.23;;;3.00;93.30;;;;;;5066798;28;20123;-35
2021/03/05 02:15:06;;;;;;;16.92;10.77;;;3.00;93.40;;;;;;5066420;28;20440;-38
2021/03/05 02:17:41;;;;;;;17.00;11.07;;;2.90;93.40;;;;;;5066742;28;20032;-38
2021/03/05 02:20:24;;;;;;;17.95;10.75;;;2.90;93.50;;;;;;5066768;28;20020;-38
2021/03/05 02:23:01;;;;;;;19.15;11.55;;;2.90;93.60;;;;;;5047016;28;20024;-40
2021/03/05 02:25:41;;;;;;;21.58;11.07;;;2.80;93.60;;;;;;5062815;28;20115;-39
2021/03/05 02:28:49;;;;;;;17.23;10.68;;;2.70;93.60;;;;;;5047233;28;20021;-38
2021/03/05 02:31:22;;;;;;;16.25;10.70;;;2.70;93.70;;;;;;5065749;28;20348;-37
2021/03/05 02:34:10;;;;;;;17.65;10.80;;;2.60;93.80;;;;;;5066146;28;20484;-39
2021/03/05 02:36:53;;;;;;;16.50;10.77;;;2.60;93.90;;;;;;5064400;28;20031;-39
2021/03/05 02:39:22;;;;;;;16.50;10.80;;;2.50;93.90;;;;;;5065876;28;20360;-38
2021/03/05 02:42:01;;;;;;;15.80;10.77;;;2.50;94.00;;;;;;5066132;28;20021;-38
2021/03/05 02:44:31;;;;;;;21.48;11.52;;;2.40;94.10;;;;;;5066416;28;20036;-40
2021/03/05 02:47:05;;;;;;;19.02;11.43;;;2.40;94.20;;;;;;5066268;28;20024;-39
2021/03/05 02:49:35;;;;;;;19.17;11.80;;;2.40;94.30;;;;;;5066162;28;20032;-33
2021/03/05 02:52:11;;;;;;;21.10;12.60;;;2.30;94.30;;;;;;5062517;28;20574;-39
2021/03/05 02:54:41;;;;;;;18.98;11.82;;;2.30;94.40;;;;;;5065647;28;20082;-38
2021/03/05 02:57:09;;;;;;;17.00;11.15;;;2.20;94.40;;;;;;5062383;28;20166;-33
2021/03/05 02:59:37;;;;;;;17.80;11.18;;;2.20;94.50;;;;;;5065423;28;20112;-36
2021/03/05 03:02:03;;;;;;;17.92;11.30;;;2.20;94.50;;;;;;5065403;28;20551;-38
2021/03/05 03:04:30;;;;;;;19.67;11.32;;;2.10;94.60;;;;;;5066019;28;20491;-39
2021/03/05 03:06:57;;;;;;;18.65;11.27;;;2.10;94.70;;;;;;5065152;28;20021;-38
2021/03/05 03:09:23;;;;;;;19.75;11.38;;;2.10;94.80;;;;;;5065536;28;20195;-37
2021/03/05 03:11:49;;;;;;;17.58;10.73;;;2.00;94.80;;;;;;5065621;28;20326;-37
2021/03/05 03:14:16;;;;;;;14.98;9.77;;;2.00;94.80;;;;;;5065155;28;20493;-38
2021/03/05 03:16:43;;;;;;;21.30;12.32;;;1.90;94.90;;;;;;5065409;28;20770;-39
2021/03/05 03:19:13;;;;;;;18.08;11.50;;;1.90;94.90;;;;;;5065710;28;20071;-39
2021/03/05 03:21:39;;;;;;;22.58;11.45;;;1.90;95.00;;;;;;5065080;28;20446;-36
2021/03/05 03:24:06;;;;;;;18.10;11.13;;;1.90;95.00;;;;;;5065907;28;20533;-39
2021/03/05 03:26:32;;;;;;;19.58;11.65;;;1.80;95.10;;;;;;5065217;28;20147;-37
2021/03/05 03:28:58;;;;;;;17.92;10.13;;;1.80;95.10;;;;;;5065347;28;20043;-36
2021/03/05 03:31:23;;;;;;;13.80;9.75;;;1.80;95.10;;;;;;5065283;28;20012;-38
2021/03/05 03:33:49;;;;;;;17.25;10.73;;;1.70;95.10;;;;;;5065332;28;20945;-40
2021/03/05 03:36:16;;;;;;;15.48;9.75;;;1.70;95.10;;;;;;5064706;28;20013;-39
2021/03/05 03:38:44;;;;;;;15.13;9.57;;;1.70;95.10;;;;;;5065417;28;20081;-38
2021/03/05 03:41:13;;;;;;;14.15;8.98;;;1.70;95.10;;;;;;5064471;28;20020;-36
2021/03/05 03:43:39;;;;;;;13.90;8.75;;;1.70;95.10;;;;;;5065083;28;20028;-39
2021/03/05 03:46:07;;;;;;;13.35;8.85;;;1.70;95.00;;;;;;5065281;28;20502;-39
2021/03/05 03:48:42;;;;;;;15.75;9.00;;;1.70;95.00;;;;;;5064594;28;20035;-38
2021/03/05 03:51:09;;;;;;;13.45;8.88;;;1.60;94.90;;;;;;5065206;28;20032;-40
2021/03/05 03:53:37;;;;;;;13.65;7.88;;;1.60;94.80;;;;;;5064237;28;20053;-39
2021/03/05 03:56:07;;;;;;;13.15;7.95;;;1.60;94.80;;;;;;5064900;28;20032;-37
2021/03/05 03:58:33;;;;;;;13.48;7.80;;;1.60;94.70;;;;;;5064444;28;20052;-38
2021/03/05 04:01:02;;;;;;;11.68;7.32;;;1.60;94.60;;;;;;5045007;28;20036;-36
2021/03/05 04:03:31;;;;;;;11.75;6.80;;;1.60;94.50;;;;;;5059190;28;20153;-39
2021/03/05 04:05:58;;;;;;;12.32;6.68;;;1.50;94.50;;;;;;5064878;28;20112;-38
2021/03/05 04:08:24;;;;;;;11.98;7.13;;;1.50;94.40;;;;;;5064541;28;20111;-37
2021/03/05 04:10:51;;;;;;;12.07;6.85;;;1.60;94.30;;;;;;5064745;28;20029;-38
2021/03/05 04:13:18;;;;;;;12.30;7.22;;;1.50;94.20;;;;;;5064254;28;20032;-38
2021/03/05 04:15:44;;;;;;;12.27;6.78;;;1.50;94.10;;;;;;5064424;28;20060;-38
2021/03/05 04:18:10;;;;;;;14.25;8.00;;;1.50;94.00;;;;;;5063996;28;20472;-40
2021/03/05 04:20:38;;;;;;;13.95;7.53;;;1.50;93.90;;;;;;5064595;28;20021;-39
2021/03/05 04:23:05;;;;;;;13.15;7.85;;;1.50;93.80;;;;;;5064629;28;20020;-38
2021/03/05 04:25:31;;;;;;;12.63;7.32;;;1.50;93.70;;;;;;5064718;28;20024;-38
2021/03/05 04:27:56;;;;;;;12.77;7.50;;;1.40;93.70;;;;;;5064503;28;20433;-39
2021/03/05 04:30:22;;;;;;;10.60;7.70;;;1.40;93.70;;;;;;5064123;28;20993;-38
2021/03/05 04:32:48;;;;;;;15.05;8.18;;;1.40;93.70;;;;;;5064481;28;20040;-36
2021/03/05 04:35:13;;;;;;;15.75;8.07;;;1.40;93.70;;;;;;5064289;28;20040;-41
2021/03/05 04:37:39;;;;;;;13.65;7.88;;;1.30;93.70;;;;;;5064000;28;20503;-39
2021/03/05 04:40:10;;;;;;;13.52;7.93;;;1.30;93.80;;;;;;5064004;28;20040;-39
2021/03/05 04:42:36;;;;;;;14.35;7.93;;;1.30;93.80;;;;;;5064746;28;20032;-39
2021/03/05 04:45:03;;;;;;;18.80;8.70;;;1.30;93.90;;;;;;5063620;28;20107;-38
2021/03/05 04:47:29;;;;;;;13.98;8.02;;;1.30;93.90;;;;;;5064666;28;20444;-37
2021/03/05 04:49:55;;;;;;;13.45;8.35;;;1.30;93.90;;;;;;5064347;28;20036;-36
2021/03/05 04:52:20;;;;;;;15.43;8.23;;;1.30;94.00;;;;;;5063372;28;20138;-36
2021/03/05 04:54:46;;;;;;;15.27;8.07;;;1.20;94.00;;;;;;5064130;28;20036;-38
2021/03/05 04:57:11;;;;;;;17.13;8.88;;;1.20;94.00;;;;;;5064026;28;20028;-39
2021/03/05 04:59:40;;;;;;;16.70;8.30;;;1.20;94.10;;;;;;5063288;28;20486;-38
2021/03/05 05:02:06;;;;;;;15.60;8.13;;;1.10;94.10;;;;;;5064064;28;20142;-37
2021/03/05 05:04:31;;;;;;;15.25;8.80;;;1.10;94.20;;;;;;5063883;28;20050;-38
2021/03/05 05:06:57;;;;;;;15.32;9.00;;;1.10;94.20;;;;;;5063875;28;20106;-38
2021/03/05 05:09:23;;;;;;;16.77;8.90;;;1.00;94.20;;;;;;5063946;28;20025;-37
2021/03/05 05:11:48;;;;;;;14.32;8.80;;;1.00;94.20;;;;;;5063935;28;20078;-38
2021/03/05 05:14:14;;;;;;;15.25;9.02;;;1.00;94.20;;;;;;5063287;28;20037;-39
2021/03/05 05:16:39;;;;;;;15.20;8.30;;;0.90;94.20;;;;;;5063631;28;20029;-38
2021/03/05 05:19:05;;;;;;;16.40;8.88;;;0.90;94.20;;;;;;5063883;28;20024;-36
2021/03/05 05:21:31;;;;;;;14.88;8.82;;;0.90;94.30;;;;;;5063725;28;20028;-39
2021/03/05 05:23:57;;;;;;;13.43;7.97;;;0.80;94.30;;;;;;5064009;28;20070;-37
2021/03/05 05:26:23;;;;;;;13.45;8.85;;;0.80;94.30;;;;;;5063510;28;20052;-37
2021/03/05 05:28:48;;;;;;;17.15;8.70;;;0.70;94.30;;;;;;5066147;28;20421;-38
2021/03/05 05:31:17;;;;;;;13.90;8.27;;;0.70;94.30;;;;;;5067515;28;20120;-39
2021/03/05 05:33:42;;;;;;;13.30;7.40;;;0.70;94.30;;;;;;5067371;28;20076;-35
2021/03/05 05:36:10;;;;;;;14.52;8.30;;;0.70;94.30;;;;;;5067822;28;20063;-38
2021/03/05 05:38:36;;;;;;;18.65;8.43;;;0.70;94.30;;;;;;5067553;28;20060;-39
2021/03/05 05:41:02;;;;;;;16.20;8.13;;;0.60;94.20;;;;;;5066840;28;20334;-39
2021/03/05 05:43:32;;;;;;;13.30;7.45;;;0.60;94.20;;;;;;5067873;28;20111;-39
2021/03/05 05:46:08;;;;;;;14.18;7.32;;;0.60;94.20;;;;;;5067696;28;20209;-39
2021/03/05 05:48:38;;;;;;;11.18;7.40;;;0.60;94.20;;;;;;5066856;28;20061;-38
2021/03/05 05:51:23;;;;;;;12.98;7.55;;;0.50;94.10;;;;;;5067225;28;20020;-35
2021/03/05 05:53:49;;;;;;;11.95;7.15;;;0.50;94.00;;;;;;5066951;28;20060;-37
2021/03/05 05:56:16;;;;;;;13.32;7.75;;;0.50;94.00;;;;;;5066524;28;20017;-39
2021/03/05 05:58:45;;;;;;;13.82;6.50;;;0.50;94.00;;;;;;5067078;28;20056;-39
2021/03/05 06:01:11;;;;;;;14.13;7.05;;;0.50;93.90;;;;;;5067810;28;20111;-38
2021/03/05 06:03:38;;;;;;;18.42;7.90;;;0.50;93.90;;;;;;5066694;28;20036;-40
2021/03/05 06:06:04;;;;;;;15.43;7.22;;;0.50;93.80;;;;;;5067161;28;20043;-39
2021/03/05 06:08:30;;;;;;;13.85;7.03;;;0.50;93.80;;;;;;5067267;28;20036;-39
2021/03/05 06:10:56;;;;;;;13.60;7.28;;;0.40;93.80;;;;;;5066783;28;20041;-38
2021/03/05 06:13:25;;;;;;;11.02;6.78;;;0.40;93.70;;;;;;5066866;28;20049;-39
2021/03/05 06:16:27;;;;;;;12.73;6.85;;;0.40;93.70;;;;;;5067046;28;20103;-39
2021/03/05 06:18:53;;;;;;;11.00;6.60;;;0.40;93.70;;;;;;5063248;28;20024;-39
2021/03/05 06:21:35;;;;;;;10.38;6.25;;;0.40;93.60;;;;;;5066929;28;20028;-39
2021/03/05 06:24:03;;;;;;;10.52;5.38;;;0.40;93.60;;;;;;5066989;28;20020;-39
2021/03/05 06:26:28;;;;;;;9.32;4.95;;;0.40;93.60;;;;;;5066872;28;20107;-38
2021/03/05 06:29:09;;;;;;;9.45;5.05;;;0.40;93.60;;;;;;5066300;28;20389;-39
2021/03/05 06:31:35;;;;;;;8.80;4.88;;;0.40;93.50;;;;;;5066632;28;20044;-39
2021/03/05 06:34:02;;;;;;;9.57;5.47;;;0.40;93.40;;;;;;5066773;28;20060;-41
2021/03/05 06:36:28;;;;;;;10.93;5.20;;;0.40;93.30;;;;;;5066547;28;20032;-39
2021/03/05 06:38:55;;;;;;;10.57;5.13;;;0.40;93.30;;;;;;5066072;28;20115;-39
2021/03/05 06:41:24;;;;;;;8.73;4.72;;;0.40;93.20;;;;;;5046062;28;20071;-37
2021/03/05 06:43:55;;;;;;;8.02;4.82;;;0.50;93.20;;;;;;5060867;28;20060;-41
2021/03/05 06:46:41;;;;;;;8.00;4.88;;;0.50;93.10;;;;;;5065869;28;20098;-38
2021/03/05 06:49:11;;;;;;;7.80;4.10;;;0.50;92.80;;;;;;5066054;28;20071;-37
2021/03/05 06:51:37;;;;;;;8.02;4.75;;;0.50;92.60;;;;;;5062393;28;20132;-36
2021/03/05 06:54:14;;;;;;;7.57;4.60;;;0.50;92.50;;;;;;5065499;28;20158;-38
2021/03/05 06:56:52;;;;;;;8.15;4.18;;;0.50;92.50;;;;;;5062964;28;20028;-39
2021/03/05 06:59:24;;;;;;;9.05;4.72;;;0.60;92.60;;;;;;5058343;28;20116;-39
2021/03/05 07:01:55;;;;;;;9.55;4.50;;;0.60;92.10;;;;;;5065396;28;20032;-38
2021/03/05 07:04:26;;;;;;;10.02;4.82;;;0.60;92.00;;;;;;5065351;28;20012;-38
2021/03/05 07:07:03;;;;;;;8.98;4.20;;;0.60;91.90;;;;;;5064555;28;20032;-38
2021/03/05 07:09:35;;;;;;;9.02;4.28;;;0.70;91.90;;;;;;5065834;28;20077;-38
2021/03/05 07:12:10;;;;;;;6.85;4.15;;;0.70;91.90;;;;;;5065511;28;20733;-37
2021/03/05 07:14:37;;;;;;;9.18;4.43;;;0.80;91.90;;;;;;5065040;28;20033;-38
2021/03/05 07:17:03;;;;;;;7.07;3.78;;;0.80;91.70;;;;;;5064883;28;20059;-36
2021/03/05 07:19:31;;;;;;;11.13;4.60;;;0.80;91.70;;;;;;5064612;28;20024;-37
2021/03/05 07:21:58;;;;;;;7.05;3.95;;;0.90;91.70;;;;;;5065784;28;20048;-39
2021/03/05 07:24:26;;;;;;;6.82;4.32;;;0.90;91.70;;;;;;5065904;28;20031;-37
2021/03/05 07:26:53;;;;;;;5.97;3.95;;;0.90;91.70;;;;;;5065520;28;20294;-39
2021/03/05 07:29:23;;;;;;;10.45;4.55;;;1.00;91.70;;;;;;5066832;28;20051;-38
2021/03/05 07:32:01;;;;;;;7.00;3.78;;;1.00;91.70;;;;;;5066036;28;20803;-39
2021/03/05 07:34:29;;;;;;;6.75;3.75;;;1.10;91.60;;;;;;5066868;28;20090;-38
2021/03/05 07:37:06;;;;;;;8.75;4.35;;;1.10;91.60;;;;;;5065207;28;20039;-37
2021/03/05 07:39:38;;;;;;;6.22;3.63;;;1.10;91.60;;;;;;5065502;28;20043;-36
2021/03/05 07:42:04;;;;;;;5.95;3.53;;;1.20;91.50;;;;;;5064921;28;20184;-38
2021/03/05 07:44:30;;;;;;;7.30;4.13;;;1.20;91.30;;;;;;5062954;28;20115;-40
2021/03/05 07:46:56;;;;;;;8.57;4.05;;;1.20;91.30;;;;;;5065580;28;20120;-39
2021/03/05 07:49:25;;;;;;;7.07;3.90;;;1.30;91.20;;;;;;5064641;28;20040;-37
2021/03/05 07:51:54;;;;;;;7.95;3.90;;;1.30;91.20;;;;;;5063567;28;20017;-39
2021/03/05 07:54:55;;;;;;;5.15;3.40;;;1.40;91.00;;;;;;5065357;28;20052;-39
2021/03/05 07:57:24;;;;;;;9.80;4.00;;;1.40;90.80;;;;;;5022477;28;20093;-38
2021/03/05 07:59:51;;;;;;;10.30;4.30;;;1.50;90.90;;;;;;5056936;28;20098;-38
2021/03/05 08:02:21;;;;;;;6.90;3.83;;;1.50;90.80;;;;;;5063189;28;20471;-39
2021/03/05 08:04:48;;;;;;;11.02;4.82;;;1.60;90.90;;;;;;5065426;28;20043;-40
2021/03/05 08:07:14;;;;;;;11.15;4.43;;;1.60;91.00;;;;;;5064933;28;20028;-39
2021/03/05 08:09:40;;;;;;;5.93;3.55;;;1.70;91.00;;;;;;5065354;28;20089;-35
2021/03/05 08:12:42;;;;;;;7.32;3.53;;;1.80;90.80;;;;;;5064776;28;20020;-37
2021/03/05 08:15:07;;;;;;;10.50;3.70;;;1.80;90.80;;;;;;5037636;28;20147;-37
2021/03/05 08:17:44;;;;;;;6.32;3.30;;;1.80;90.80;;;;;;5063986;28;20467;-39
2021/03/05 08:20:46;;;;;;;6.95;3.30;;;1.90;90.70;;;;;;5065220;28;20051;-39
2021/03/05 08:23:11;;;;;;;5.18;2.95;;;2.00;90.70;;;;;;5062535;28;20246;-40
2021/03/05 08:25:47;;;;;;;7.00;2.95;;;2.00;90.70;;;;;;5064427;28;20736;-40
2021/03/05 08:28:35;;;;;;;8.23;2.97;;;2.00;90.10;;;;;;5061731;28;20093;-40
2021/03/05 08:31:01;;;;;;;6.88;3.00;;;2.10;90.50;;;;;;5064819;28;20103;-37
2021/03/05 08:33:28;;;;;;;8.30;2.95;;;2.20;90.40;;;;;;5064226;28;20116;-40
2021/03/05 08:35:54;;;;;;;7.20;2.40;;;2.20;90.20;;;;;;5064446;28;20028;-39
2021/03/05 08:38:34;;;;;;;5.50;2.30;;;2.30;89.90;;;;;;5063869;28;20051;-39
2021/03/05 08:41:04;;;;;;;5.70;2.03;;;2.40;88.10;;;;;;5065052;28;20103;-40
2021/03/05 08:43:34;;;;;;;6.22;2.20;;;2.40;87.90;;;;;;5064732;28;20021;-40
2021/03/05 08:46:05;;;;;;;5.43;2.05;;;2.40;85.60;;;;;;5063149;28;20484;-38
2021/03/05 08:48:43;;;;;;;5.20;2.00;;;2.50;85.70;;;;;;5062913;28;20086;-37
2021/03/05 08:51:32;;;;;;;5.40;2.10;;;2.60;86.30;;;;;;5061176;28;20025;-39
2021/03/05 08:53:58;;;;;;;3.53;1.60;;;2.60;85.30;;;;;;5064032;28;20048;-40
2021/03/05 08:56:28;;;;;;;4.95;2.08;;;2.70;84.00;;;;;;5063871;28;20067;-39
2021/03/05 08:58:57;;;;;;;6.30;1.90;;;2.70;82.50;;;;;;5063451;28;20036;-39
2021/03/05 09:01:32;;;;;;;4.97;1.58;;;2.80;81.00;;;;;;5064286;28;20047;-37
2021/03/05 09:04:15;;;;;;;5.85;2.17;;;2.90;80.70;;;;;;5065825;28;20028;-38
2021/03/05 09:06:58;;;;;;;5.43;1.60;;;2.90;79.90;;;;;;5068178;28;20635;-38
2021/03/05 09:09:27;;;;;;;6.35;1.85;;;3.00;77.50;;;;;;5067002;28;20489;-39
2021/03/05 09:12:13;;;;;;;6.25;1.45;;;3.00;76.40;;;;;;5067547;28;20070;-38
2021/03/05 09:14:39;;;;;;;3.55;1.60;;;3.10;76.60;;;;;;5068071;28;20047;-37
2021/03/05 09:17:07;;;;;;;4.10;1.67;;;3.10;76.50;;;;;;5068543;28;20028;-38
2021/03/05 09:19:37;;;;;;;3.05;1.48;;;3.20;76.10;;;;;;5067496;28;20109;-39
2021/03/05 09:22:29;;;;;;;2.95;1.40;;;3.20;75.70;;;;;;5065570;28;20028;-39
2021/03/05 09:24:57;;;;;;;3.67;1.40;;;3.20;74.80;;;;;;5066768;28;20031;-38
2021/03/05 09:27:25;;;;;;;3.78;1.65;;;3.20;75.30;;;;;;5068287;28;20032;-40
2021/03/05 09:29:52;;;;;;;5.10;1.92;;;3.30;74.60;;;;;;5068018;28;20237;-39
2021/03/05 09:32:18;;;;;;;4.82;1.50;;;3.30;73.80;;;;;;5068309;28;20043;-37
2021/03/05 09:34:59;;;;;;;5.03;1.98;;;3.40;74.30;;;;;;5067275;28;20029;-40
2021/03/05 09:37:29;;;;;;;5.45;2.00;;;3.40;74.20;;;;;;5047914;28;20427;-37
2021/03/05 09:39:58;;;;;;;3.95;1.67;;;3.50;73.40;;;;;;5064471;28;20065;-38
2021/03/05 09:42:46;;;;;;;3.05;1.45;;;3.50;72.20;;;;;;5048069;28;20094;-38
2021/03/05 09:45:32;;;;;;;8.52;1.60;;;3.60;70.70;;;;;;5064787;28;20059;-38
2021/03/05 09:47:58;;;;;;;3.45;1.50;;;3.60;70.60;;;;;;5068044;28;20031;-38
2021/03/05 09:50:26;;;;;;;4.93;1.65;;;3.60;71.50;;;;;;5067598;28;20025;-38
2021/03/05 09:52:52;;;;;;;5.72;2.28;;;3.60;72.00;;;;;;5067339;28;20204;-39
2021/03/05 09:55:29;;;;;;;4.03;1.38;;;3.60;71.40;;;;;;5066516;28;20071;-39
2021/03/05 09:58:09;;;;;;;3.40;1.75;;;3.70;70.80;;;;;;5068161;28;20032;-37
2021/03/05 10:00:35;;;;;;;2.85;1.60;;;3.80;71.00;;;;;;5066277;28;20046;-38
2021/03/05 10:03:09;;;;;;;4.00;1.27;;;3.80;70.70;;;;;;5066680;28;20185;-36
2021/03/05 10:05:37;;;;;;;5.60;2.00;;;3.80;70.20;;;;;;5065371;28;20114;-39
2021/03/05 10:08:14;;;;;;;4.05;1.63;;;3.90;69.20;;;;;;5052752;28;20028;-39
2021/03/05 10:11:08;;;;;;;4.75;1.48;;;3.90;67.20;;;;;;5060131;28;20033;-39
2021/03/05 10:13:55;;;;;;;4.38;1.25;;;4.00;67.60;;;;;;5047031;28;20063;-38
2021/03/05 10:16:20;;;;;;;4.47;1.33;;;4.00;65.30;;;;;;5063319;28;20032;-40
2021/03/05 10:18:48;;;;;;;2.72;1.27;;;4.10;62.80;;;;;;5052661;28;20040;-39
2021/03/05 10:21:16;;;;;;;2.17;1.00;;;4.10;64.00;;;;;;5062456;28;20396;-39
2021/03/05 10:23:42;;;;;;;3.65;1.20;;;4.20;64.00;;;;;;5065991;28;20415;-39
2021/03/05 10:26:22;;;;;;;2.45;1.05;;;4.20;63.90;;;;;;5066885;28;20029;-40
2021/03/05 10:28:54;;;;;;;4.13;0.88;;;4.30;63.40;;;;;;5066781;28;20031;-39
2021/03/05 10:31:20;;;;;;;2.53;0.90;;;4.30;61.30;;;;;;5066631;28;20024;-40
2021/03/05 10:33:46;;;;;;;4.70;1.00;;;4.40;60.80;;;;;;5066611;28;20032;-39
2021/03/05 10:36:13;;;;;;;2.30;1.00;;;4.40;59.70;;;;;;5066048;28;20028;-41
2021/03/05 10:38:40;;;;;;;2.10;0.90;;;4.50;58.10;;;;;;5066388;28;20036;-40
2021/03/05 10:41:06;;;;;;;2.15;1.02;;;4.50;57.70;;;;;;5066360;28;20020;-38
2021/03/05 10:43:35;;;;;;;1.65;1.08;;;4.60;56.80;;;;;;5066405;28;20143;-39
2021/03/05 10:46:01;;;;;;;1.23;0.55;;;4.60;55.40;;;;;;5066564;28;20028;-39
2021/03/05 10:48:27;;;;;;;2.13;0.85;;;4.60;54.60;;;;;;5066389;28;20361;-39
2021/03/05 10:50:52;;;;;;;1.90;0.88;;;4.70;55.10;;;;;;5066085;28;20028;-39
2021/03/05 10:53:18;;;;;;;3.33;1.25;;;4.70;54.50;;;;;;5065712;28;20102;-38
2021/03/05 10:55:44;;;;;;;3.90;0.90;;;4.70;54.60;;;;;;5064660;28;20024;-39
2021/03/05 10:58:09;;;;;;;1.73;0.98;;;4.80;56.40;;;;;;5065820;28;20024;-40
2021/03/05 11:00:35;;;;;;;1.52;0.80;;;4.80;54.60;;;;;;5066755;28;20032;-39
2021/03/05 11:03:00;;;;;;;2.22;0.95;;;4.90;54.10;;;;;;5066544;28;20027;-39
2021/03/05 11:05:26;;;;;;;1.25;0.70;;;4.90;53.10;;;;;;5065648;28;20024;-38
2021/03/05 11:07:52;;;;;;;4.65;0.85;;;5.00;50.40;;;;;;5063663;28;20029;-40
2021/03/05 11:10:19;;;;;;;0.98;0.80;;;5.00;48.60;;;;;;5046421;28;20055;-38
2021/03/05 11:12:45;;;;;;;3.63;1.02;;;5.00;50.60;;;;;;5059134;28;20111;-38
2021/03/05 11:15:11;;;;;;;2.55;1.10;;;4.90;49.80;;;;;;5066006;28;20085;-39
2021/03/05 11:17:36;;;;;;;3.28;0.90;;;5.00;49.20;;;;;;5065695;28;20055;-40
2021/03/05 11:20:03;;;;;;;6.35;1.00;;;5.00;50.10;;;;;;5065492;28;20492;-39
2021/03/05 11:22:30;;;;;;;1.30;0.60;;;5.00;49.30;;;;;;5065378;28;20503;-39
2021/03/05 11:24:55;;;;;;;1.67;0.75;;;5.10;49.50;;;;;;5065478;28;20035;-37
2021/03/05 11:27:21;;;;;;;1.23;0.70;;;5.10;47.40;;;;;;5065179;28;20024;-40
2021/03/05 11:29:46;;;;;;;3.47;0.70;;;5.10;49.30;;;;;;5065777;28;20028;-37
2021/03/05 11:32:12;;;;;;;2.47;0.90;;;5.20;49.40;;;;;;5064843;28;20058;-38
2021/03/05 11:34:39;;;;;;;2.25;0.70;;;5.20;48.40;;;;;;5065323;28;20025;-38
2021/03/05 11:37:04;;;;;;;2.13;1.10;;;5.20;44.70;;;;;;5065506;28;20042;-39
2021/03/05 11:39:33;;;;;;;2.88;0.85;;;5.20;44.90;;;;;;5064541;28;20021;-33
2021/03/05 11:41:59;;;;;;;2.05;0.60;;;5.30;44.40;;;;;;5065707;28;20021;-36
2021/03/05 11:44:26;;;;;;;3.63;0.73;;;5.30;44.20;;;;;;5064907;28;20048;-39
2021/03/05 11:46:51;;;;;;;2.00;0.70;;;5.40;43.00;;;;;;5064250;28;20058;-36
2021/03/05 11:49:17;;;;;;;1.98;0.93;;;5.40;44.40;;;;;;5064879;28;20032;-38
2021/03/05 11:51:42;;;;;;;1.20;0.70;;;5.40;44.60;;;;;;5065121;28;20159;-41
2021/03/05 11:54:08;;;;;;;1.30;0.63;;;5.40;44.90;;;;;;5063711;28;20044;-38
2021/03/05 11:56:35;;;;;;;1.55;0.80;;;5.40;46.40;;;;;;5064603;28;20032;-39
2021/03/05 11:59:01;;;;;;;1.85;0.70;;;5.40;47.00;;;;;;5065190;28;20028;-39
2021/03/05 12:01:27;;;;;;;2.08;0.60;;;5.50;47.60;;;;;;5064895;28;20113;-41
2021/03/05 12:03:53;;;;;;;2.45;0.95;;;5.50;47.60;;;;;;5064953;28;20024;-41
2021/03/05 12:06:19;;;;;;;2.08;0.80;;;5.60;48.00;;;;;;5064625;28;20031;-39
2021/03/05 12:08:45;;;;;;;0.85;0.73;;;5.60;47.60;;;;;;5064445;28;20108;-40
2021/03/05 12:11:10;;;;;;;5.32;0.90;;;5.60;47.00;;;;;;5064959;28;20399;-40
2021/03/05 12:13:36;;;;;;;2.33;0.80;;;5.60;46.60;;;;;;5063106;28;20521;-38
2021/03/05 12:16:05;;;;;;;1.20;0.75;;;5.70;46.40;;;;;;5065212;28;20040;-38
2021/03/05 12:18:30;;;;;;;2.42;0.70;;;5.70;47.50;;;;;;5064593;28;20034;-40
2021/03/05 12:20:56;;;;;;;2.38;0.70;;;5.70;47.50;;;;;;5065314;28;20025;-38
2021/03/05 12:23:21;;;;;;;2.88;0.60;;;5.70;47.50;;;;;;5064310;28;20025;-39
2021/03/05 12:25:47;;;;;;;2.90;0.68;;;5.80;47.90;;;;;;5064068;28;20391;-38
2021/03/05 12:28:12;;;;;;;2.90;0.85;;;5.80;47.80;;;;;;5065209;28;20040;-35
2021/03/05 12:30:38;;;;;;;2.80;0.75;;;5.80;46.80;;;;;;5064338;28;20078;-38
2021/03/05 12:33:03;;;;;;;2.75;0.60;;;5.80;47.00;;;;;;5064885;28;20425;-42
2021/03/05 12:35:29;;;;;;;1.20;0.60;;;5.90;47.10;;;;;;5064969;28;20107;-34
2021/03/05 12:37:55;;;;;;;1.60;0.70;;;6.00;47.90;;;;;;5064179;28;20561;-41
2021/03/05 12:40:21;;;;;;;2.83;0.80;;;6.00;47.50;;;;;;5064355;28;20493;-36
2021/03/05 12:42:46;;;;;;;1.50;0.80;;;6.10;47.80;;;;;;5064567;28;20031;-40
2021/03/05 12:45:13;;;;;;;1.67;0.73;;;6.10;48.40;;;;;;5064133;28;20694;-39
2021/03/05 12:47:39;;;;;;;2.65;0.90;;;6.10;48.90;;;;;;5064324;28;20029;-40
2021/03/05 12:50:06;;;;;;;0.95;0.70;;;6.10;48.70;;;;;;5063726;28;20032;-40
2021/03/05 12:52:32;;;;;;;1.73;0.70;;;6.10;48.10;;;;;;5061264;28;20025;-38
2021/03/05 12:54:58;;;;;;;0.77;0.50;;;6.20;47.00;;;;;;5064455;28;20123;-40
2021/03/05 12:57:23;;;;;;;3.17;0.60;;;6.20;46.70;;;;;;5064282;28;20114;-39
2021/03/05 12:59:49;;;;;;;1.63;0.77;;;6.20;47.50;;;;;;5064058;28;20020;-37